sensor_id;sensor_type;location;lat;lon;timestamp;P1;durP1;ratioP1;P2;durP2;ratioP2
5876;SDS011;2964;42.144;24.730;2024-01-15T00:00:57;67.77;;;32.47;;
5876;SDS011;2964;42.144;24.730;2024-01-15T00:03:23;70.87;;;32.97;;
5876;SDS011;2964;42.144;24.730;2024-01-15T00:05:50;69.83;;;29.60;;
5876;SDS011;2964;42.144;24.730;2024-01-15T00:08:17;60.40;;;30.77;;
5876;SDS011;2964;42.144;24.730;2024-01-15T00:10:43;58.60;;;29.67;;
5876;SDS011;2964;42.144;24.730;2024-01-15T00:13:10;57.60;;;30.13;;
5876;SDS011;2964;42.144;24.730;2024-01-15T00:15:37;60.77;;;30.53;;
5876;SDS011;2964;42.144;24.730;2024-01-15T00:18:05;58.07;;;28.83;;
5876;SDS011;2964;42.144;24.730;2024-01-15T00:20:32;69.77;;;32.00;;
5876;SDS011;2964;42.144;24.730;2024-01-15T00:22:59;62.53;;;30.80;;
5876;SDS011;2964;42.144;24.730;2024-01-15T00:25:25;64.97;;;29.00;;
5876;SDS011;2964;42.144;24.730;2024-01-15T00:27:52;62.50;;;30.83;;
5876;SDS011;2964;42.144;24.730;2024-01-15T00:30:19;58.67;;;29.43;;
5876;SDS011;2964;42.144;24.730;2024-01-15T00:32:45;63.03;;;30.20;;
5876;SDS011;2964;42.144;24.730;2024-01-15T00:35:14;57.30;;;30.00;;
5876;SDS011;2964;42.144;24.730;2024-01-15T00:37:41;59.93;;;30.33;;
5876;SDS011;2964;42.144;24.730;2024-01-15T00:40:08;58.17;;;29.43;;
5876;SDS011;2964;42.144;24.730;2024-01-15T00:42:35;52.83;;;26.93;;
5876;SDS011;2964;42.144;24.730;2024-01-15T00:45:02;59.87;;;29.50;;
5876;SDS011;2964;42.144;24.730;2024-01-15T00:47:30;56.20;;;29.40;;
5876;SDS011;2964;42.144;24.730;2024-01-15T00:49:57;57.20;;;28.63;;
5876;SDS011;2964;42.144;24.730;2024-01-15T00:52:25;58.20;;;29.77;;
5876;SDS011;2964;42.144;24.730;2024-01-15T00:54:51;60.20;;;30.47;;
5876;SDS011;2964;42.144;24.730;2024-01-15T00:57:21;59.73;;;29.70;;
5876;SDS011;2964;42.144;24.730;2024-01-15T00:59:47;66.80;;;29.90;;
5876;SDS011;2964;42.144;24.730;2024-01-15T01:02:14;62.97;;;29.60;;
5876;SDS011;2964;42.144;24.730;2024-01-15T01:04:41;59.83;;;29.57;;
5876;SDS011;2964;42.144;24.730;2024-01-15T01:07:07;58.77;;;28.60;;
5876;SDS011;2964;42.144;24.730;2024-01-15T01:09:35;64.47;;;29.30;;
5876;SDS011;2964;42.144;24.730;2024-01-15T01:12:01;58.70;;;29.07;;
5876;SDS011;2964;42.144;24.730;2024-01-15T01:14:28;58.23;;;28.77;;
5876;SDS011;2964;42.144;24.730;2024-01-15T01:16:54;58.33;;;28.20;;
5876;SDS011;2964;42.144;24.730;2024-01-15T01:19:21;59.20;;;30.10;;
5876;SDS011;2964;42.144;24.730;2024-01-15T01:21:48;68.97;;;29.70;;
5876;SDS011;2964;42.144;24.730;2024-01-15T01:24:15;59.67;;;26.37;;
5876;SDS011;2964;42.144;24.730;2024-01-15T01:26:43;49.00;;;25.27;;
5876;SDS011;2964;42.144;24.730;2024-01-15T01:29:11;54.73;;;26.30;;
5876;SDS011;2964;42.144;24.730;2024-01-15T01:31:42;52.47;;;28.03;;
5876;SDS011;2964;42.144;24.730;2024-01-15T01:34:09;62.47;;;29.77;;
5876;SDS011;2964;42.144;24.730;2024-01-15T01:36:35;59.00;;;31.73;;
5876;SDS011;2964;42.144;24.730;2024-01-15T01:39:02;64.23;;;31.40;;
5876;SDS011;2964;42.144;24.730;2024-01-15T01:41:29;59.80;;;31.53;;
5876;SDS011;2964;42.144;24.730;2024-01-15T01:43:57;62.20;;;29.33;;
5876;SDS011;2964;42.144;24.730;2024-01-15T01:46:23;55.53;;;27.03;;
5876;SDS011;2964;42.144;24.730;2024-01-15T01:48:51;58.43;;;32.67;;
5876;SDS011;2964;42.144;24.730;2024-01-15T01:51:19;63.20;;;30.33;;
5876;SDS011;2964;42.144;24.730;2024-01-15T01:53:48;52.90;;;28.30;;
5876;SDS011;2964;42.144;24.730;2024-01-15T01:56:16;64.83;;;29.80;;
5876;SDS011;2964;42.144;24.730;2024-01-15T01:58:44;59.00;;;30.17;;
5876;SDS011;2964;42.144;24.730;2024-01-15T02:01:12;61.10;;;30.83;;
5876;SDS011;2964;42.144;24.730;2024-01-15T02:03:39;60.30;;;31.30;;
5876;SDS011;2964;42.144;24.730;2024-01-15T02:06:06;61.03;;;31.33;;
5876;SDS011;2964;42.144;24.730;2024-01-15T02:08:34;64.87;;;32.57;;
5876;SDS011;2964;42.144;24.730;2024-01-15T02:11:02;59.63;;;29.20;;
5876;SDS011;2964;42.144;24.730;2024-01-15T02:13:29;67.07;;;32.57;;
5876;SDS011;2964;42.144;24.730;2024-01-15T02:15:55;65.43;;;27.07;;
5876;SDS011;2964;42.144;24.730;2024-01-15T02:18:23;64.87;;;31.63;;
5876;SDS011;2964;42.144;24.730;2024-01-15T02:20:50;56.30;;;28.93;;
5876;SDS011;2964;42.144;24.730;2024-01-15T02:23:18;55.47;;;29.00;;
5876;SDS011;2964;42.144;24.730;2024-01-15T02:25:46;54.13;;;27.67;;
5876;SDS011;2964;42.144;24.730;2024-01-15T02:28:13;53.20;;;26.80;;
5876;SDS011;2964;42.144;24.730;2024-01-15T02:30:41;59.00;;;29.87;;
5876;SDS011;2964;42.144;24.730;2024-01-15T02:33:09;54.47;;;27.90;;
5876;SDS011;2964;42.144;24.730;2024-01-15T02:35:37;60.30;;;29.27;;
5876;SDS011;2964;42.144;24.730;2024-01-15T02:38:04;63.17;;;28.90;;
5876;SDS011;2964;42.144;24.730;2024-01-15T02:40:33;55.80;;;28.53;;
5876;SDS011;2964;42.144;24.730;2024-01-15T02:43:00;56.17;;;27.47;;
5876;SDS011;2964;42.144;24.730;2024-01-15T02:45:27;62.87;;;29.23;;
5876;SDS011;2964;42.144;24.730;2024-01-15T02:47:54;55.17;;;28.30;;
5876;SDS011;2964;42.144;24.730;2024-01-15T02:50:20;53.70;;;28.07;;
5876;SDS011;2964;42.144;24.730;2024-01-15T02:52:47;55.53;;;27.27;;
5876;SDS011;2964;42.144;24.730;2024-01-15T02:55:14;56.23;;;26.97;;
5876;SDS011;2964;42.144;24.730;2024-01-15T02:57:42;55.37;;;28.03;;
5876;SDS011;2964;42.144;24.730;2024-01-15T03:00:09;52.13;;;26.90;;
5876;SDS011;2964;42.144;24.730;2024-01-15T03:02:36;53.30;;;28.27;;
5876;SDS011;2964;42.144;24.730;2024-01-15T03:05:04;52.53;;;25.57;;
5876;SDS011;2964;42.144;24.730;2024-01-15T03:07:31;50.73;;;25.60;;
5876;SDS011;2964;42.144;24.730;2024-01-15T03:09:58;54.80;;;25.17;;
5876;SDS011;2964;42.144;24.730;2024-01-15T03:12:25;49.13;;;26.00;;
5876;SDS011;2964;42.144;24.730;2024-01-15T03:14:53;45.53;;;26.00;;
5876;SDS011;2964;42.144;24.730;2024-01-15T03:17:20;49.67;;;25.33;;
5876;SDS011;2964;42.144;24.730;2024-01-15T03:19:46;58.23;;;27.93;;
5876;SDS011;2964;42.144;24.730;2024-01-15T03:22:14;52.97;;;27.03;;
5876;SDS011;2964;42.144;24.730;2024-01-15T03:24:41;56.13;;;27.23;;
5876;SDS011;2964;42.144;24.730;2024-01-15T03:27:08;65.23;;;28.20;;
5876;SDS011;2964;42.144;24.730;2024-01-15T03:29:34;52.27;;;27.53;;
5876;SDS011;2964;42.144;24.730;2024-01-15T03:32:03;52.20;;;27.50;;
5876;SDS011;2964;42.144;24.730;2024-01-15T03:34:30;57.37;;;29.47;;
5876;SDS011;2964;42.144;24.730;2024-01-15T03:36:56;50.27;;;26.33;;
5876;SDS011;2964;42.144;24.730;2024-01-15T03:39:24;53.73;;;26.13;;
5876;SDS011;2964;42.144;24.730;2024-01-15T03:41:51;52.53;;;25.73;;
5876;SDS011;2964;42.144;24.730;2024-01-15T03:44:17;52.17;;;27.43;;
5876;SDS011;2964;42.144;24.730;2024-01-15T03:46:44;53.10;;;26.87;;
5876;SDS011;2964;42.144;24.730;2024-01-15T03:49:12;54.27;;;27.07;;
5876;SDS011;2964;42.144;24.730;2024-01-15T03:51:39;63.00;;;30.40;;
5876;SDS011;2964;42.144;24.730;2024-01-15T03:54:05;65.03;;;30.57;;
5876;SDS011;2964;42.144;24.730;2024-01-15T03:56:32;70.23;;;33.07;;
5876;SDS011;2964;42.144;24.730;2024-01-15T03:58:58;78.87;;;34.67;;
5876;SDS011;2964;42.144;24.730;2024-01-15T04:01:24;78.63;;;33.60;;
5876;SDS011;2964;42.144;24.730;2024-01-15T04:03:51;67.30;;;32.77;;
5876;SDS011;2964;42.144;24.730;2024-01-15T04:06:19;66.27;;;32.20;;
5876;SDS011;2964;42.144;24.730;2024-01-15T04:08:45;55.23;;;28.90;;
5876;SDS011;2964;42.144;24.730;2024-01-15T04:11:12;61.77;;;29.27;;
5876;SDS011;2964;42.144;24.730;2024-01-15T04:13:39;59.80;;;29.80;;
5876;SDS011;2964;42.144;24.730;2024-01-15T04:16:06;56.17;;;28.07;;
5876;SDS011;2964;42.144;24.730;2024-01-15T04:18:32;54.60;;;26.37;;
5876;SDS011;2964;42.144;24.730;2024-01-15T04:20:59;49.77;;;26.83;;
5876;SDS011;2964;42.144;24.730;2024-01-15T04:23:27;50.80;;;28.03;;
5876;SDS011;2964;42.144;24.730;2024-01-15T04:25:54;50.30;;;27.67;;
5876;SDS011;2964;42.144;24.730;2024-01-15T04:28:21;53.90;;;26.73;;
5876;SDS011;2964;42.144;24.730;2024-01-15T04:30:47;49.40;;;25.00;;
5876;SDS011;2964;42.144;24.730;2024-01-15T04:33:14;50.63;;;26.17;;
5876;SDS011;2964;42.144;24.730;2024-01-15T04:35:41;49.47;;;25.23;;
5876;SDS011;2964;42.144;24.730;2024-01-15T04:38:08;50.53;;;24.93;;
5876;SDS011;2964;42.144;24.730;2024-01-15T04:40:36;54.73;;;25.17;;
5876;SDS011;2964;42.144;24.730;2024-01-15T04:43:02;52.70;;;25.53;;
5876;SDS011;2964;42.144;24.730;2024-01-15T04:45:29;51.83;;;24.77;;
5876;SDS011;2964;42.144;24.730;2024-01-15T04:47:56;62.00;;;26.60;;
5876;SDS011;2964;42.144;24.730;2024-01-15T04:50:23;55.70;;;27.23;;
5876;SDS011;2964;42.144;24.730;2024-01-15T04:52:49;54.63;;;26.50;;
5876;SDS011;2964;42.144;24.730;2024-01-15T04:55:16;57.60;;;26.33;;
5876;SDS011;2964;42.144;24.730;2024-01-15T04:57:44;57.83;;;27.30;;
5876;SDS011;2964;42.144;24.730;2024-01-15T05:00:11;58.70;;;27.80;;
5876;SDS011;2964;42.144;24.730;2024-01-15T05:02:39;59.17;;;27.67;;
5876;SDS011;2964;42.144;24.730;2024-01-15T05:05:06;52.90;;;25.93;;
5876;SDS011;2964;42.144;24.730;2024-01-15T05:07:33;51.07;;;25.63;;
5876;SDS011;2964;42.144;24.730;2024-01-15T05:09:59;49.20;;;26.20;;
5876;SDS011;2964;42.144;24.730;2024-01-15T05:12:26;54.53;;;27.83;;
5876;SDS011;2964;42.144;24.730;2024-01-15T05:14:57;62.13;;;29.17;;
5876;SDS011;2964;42.144;24.730;2024-01-15T05:17:23;56.67;;;28.97;;
5876;SDS011;2964;42.144;24.730;2024-01-15T05:19:50;58.67;;;29.33;;
5876;SDS011;2964;42.144;24.730;2024-01-15T05:22:17;53.90;;;27.97;;
5876;SDS011;2964;42.144;24.730;2024-01-15T05:24:43;54.77;;;27.13;;
5876;SDS011;2964;42.144;24.730;2024-01-15T05:27:10;67.77;;;28.63;;
5876;SDS011;2964;42.144;24.730;2024-01-15T05:29:37;64.53;;;31.57;;
5876;SDS011;2964;42.144;24.730;2024-01-15T05:32:05;76.00;;;32.30;;
5876;SDS011;2964;42.144;24.730;2024-01-15T05:34:31;56.87;;;29.70;;
5876;SDS011;2964;42.144;24.730;2024-01-15T05:36:58;61.17;;;29.37;;
5876;SDS011;2964;42.144;24.730;2024-01-15T05:39:25;55.53;;;28.90;;
5876;SDS011;2964;42.144;24.730;2024-01-15T05:41:51;61.23;;;28.30;;
5876;SDS011;2964;42.144;24.730;2024-01-15T05:44:18;55.43;;;28.23;;
5876;SDS011;2964;42.144;24.730;2024-01-15T05:46:45;69.67;;;30.73;;
5876;SDS011;2964;42.144;24.730;2024-01-15T05:49:13;65.30;;;31.43;;
5876;SDS011;2964;42.144;24.730;2024-01-15T05:51:40;62.47;;;30.50;;
5876;SDS011;2964;42.144;24.730;2024-01-15T05:54:06;69.30;;;32.83;;
5876;SDS011;2964;42.144;24.730;2024-01-15T05:56:33;80.33;;;37.17;;
5876;SDS011;2964;42.144;24.730;2024-01-15T05:59:00;65.83;;;34.80;;
5876;SDS011;2964;42.144;24.730;2024-01-15T06:01:26;67.03;;;34.97;;
5876;SDS011;2964;42.144;24.730;2024-01-15T06:03:53;64.50;;;32.73;;
5876;SDS011;2964;42.144;24.730;2024-01-15T06:06:21;64.37;;;31.50;;
5876;SDS011;2964;42.144;24.730;2024-01-15T06:08:48;48.87;;;26.20;;
5876;SDS011;2964;42.144;24.730;2024-01-15T06:11:14;50.00;;;25.07;;
5876;SDS011;2964;42.144;24.730;2024-01-15T06:13:41;51.57;;;26.03;;
5876;SDS011;2964;42.144;24.730;2024-01-15T06:16:12;56.60;;;26.57;;
5876;SDS011;2964;42.144;24.730;2024-01-15T06:18:40;49.73;;;24.40;;
5876;SDS011;2964;42.144;24.730;2024-01-15T06:21:07;49.73;;;24.30;;
5876;SDS011;2964;42.144;24.730;2024-01-15T06:23:36;46.43;;;24.80;;
5876;SDS011;2964;42.144;24.730;2024-01-15T06:26:03;51.10;;;24.20;;
5876;SDS011;2964;42.144;24.730;2024-01-15T06:28:30;46.40;;;24.80;;
5876;SDS011;2964;42.144;24.730;2024-01-15T06:30:57;43.10;;;23.47;;
5876;SDS011;2964;42.144;24.730;2024-01-15T06:33:24;40.20;;;22.43;;
5876;SDS011;2964;42.144;24.730;2024-01-15T06:35:51;38.50;;;21.07;;
5876;SDS011;2964;42.144;24.730;2024-01-15T06:38:17;43.67;;;22.70;;
5876;SDS011;2964;42.144;24.730;2024-01-15T06:40:45;39.47;;;22.00;;
5876;SDS011;2964;42.144;24.730;2024-01-15T06:43:13;36.70;;;21.90;;
5876;SDS011;2964;42.144;24.730;2024-01-15T06:45:40;41.17;;;20.67;;
5876;SDS011;2964;42.144;24.730;2024-01-15T06:48:07;41.93;;;21.20;;
5876;SDS011;2964;42.144;24.730;2024-01-15T06:50:34;42.90;;;23.03;;
5876;SDS011;2964;42.144;24.730;2024-01-15T06:53:00;43.60;;;22.43;;
5876;SDS011;2964;42.144;24.730;2024-01-15T06:55:27;45.03;;;23.33;;
5876;SDS011;2964;42.144;24.730;2024-01-15T06:57:55;52.83;;;22.63;;
5876;SDS011;2964;42.144;24.730;2024-01-15T07:00:22;46.33;;;22.50;;
5876;SDS011;2964;42.144;24.730;2024-01-15T07:02:49;51.10;;;23.67;;
5876;SDS011;2964;42.144;24.730;2024-01-15T07:05:15;40.10;;;21.00;;
5876;SDS011;2964;42.144;24.730;2024-01-15T07:07:42;43.83;;;23.73;;
5876;SDS011;2964;42.144;24.730;2024-01-15T07:10:09;45.37;;;23.30;;
5876;SDS011;2964;42.144;24.730;2024-01-15T07:12:35;49.50;;;24.07;;
5876;SDS011;2964;42.144;24.730;2024-01-15T07:15:04;46.00;;;22.23;;
5876;SDS011;2964;42.144;24.730;2024-01-15T07:17:33;49.50;;;23.23;;
5876;SDS011;2964;42.144;24.730;2024-01-15T07:19:59;61.20;;;25.53;;
5876;SDS011;2964;42.144;24.730;2024-01-15T07:22:26;50.83;;;25.80;;
5876;SDS011;2964;42.144;24.730;2024-01-15T07:24:53;49.53;;;27.47;;
5876;SDS011;2964;42.144;24.730;2024-01-15T07:27:20;72.33;;;28.13;;
5876;SDS011;2964;42.144;24.730;2024-01-15T07:29:47;58.37;;;27.80;;
5876;SDS011;2964;42.144;24.730;2024-01-15T07:32:15;73.23;;;35.00;;
5876;SDS011;2964;42.144;24.730;2024-01-15T07:34:45;79.73;;;39.97;;
5876;SDS011;2964;42.144;24.730;2024-01-15T07:37:12;76.03;;;39.63;;
5876;SDS011;2964;42.144;24.730;2024-01-15T07:39:39;84.70;;;37.00;;
5876;SDS011;2964;42.144;24.730;2024-01-15T07:42:05;78.57;;;35.20;;
5876;SDS011;2964;42.144;24.730;2024-01-15T07:44:32;66.27;;;33.60;;
5876;SDS011;2964;42.144;24.730;2024-01-15T07:46:59;74.97;;;33.33;;
5876;SDS011;2964;42.144;24.730;2024-01-15T07:49:27;60.97;;;33.17;;
5876;SDS011;2964;42.144;24.730;2024-01-15T07:51:54;82.03;;;33.33;;
5876;SDS011;2964;42.144;24.730;2024-01-15T07:54:20;73.77;;;31.77;;
5876;SDS011;2964;42.144;24.730;2024-01-15T07:56:55;70.60;;;34.27;;
5876;SDS011;2964;42.144;24.730;2024-01-15T07:59:22;82.27;;;32.97;;
5876;SDS011;2964;42.144;24.730;2024-01-15T08:01:49;74.80;;;36.33;;
5876;SDS011;2964;42.144;24.730;2024-01-15T08:04:16;66.27;;;35.73;;
5876;SDS011;2964;42.144;24.730;2024-01-15T08:06:44;89.37;;;37.40;;
5876;SDS011;2964;42.144;24.730;2024-01-15T08:09:11;67.73;;;34.57;;
5876;SDS011;2964;42.144;24.730;2024-01-15T08:11:39;57.13;;;30.27;;
5876;SDS011;2964;42.144;24.730;2024-01-15T08:14:05;50.83;;;27.00;;
5876;SDS011;2964;42.144;24.730;2024-01-15T08:16:32;55.97;;;28.13;;
5876;SDS011;2964;42.144;24.730;2024-01-15T08:18:59;57.37;;;30.30;;
5876;SDS011;2964;42.144;24.730;2024-01-15T08:21:26;58.27;;;29.93;;
5876;SDS011;2964;42.144;24.730;2024-01-15T08:23:56;54.47;;;29.13;;
5876;SDS011;2964;42.144;24.730;2024-01-15T08:26:23;54.40;;;27.90;;
5876;SDS011;2964;42.144;24.730;2024-01-15T08:28:49;56.50;;;29.33;;
5876;SDS011;2964;42.144;24.730;2024-01-15T08:31:16;45.17;;;26.07;;
5876;SDS011;2964;42.144;24.730;2024-01-15T08:33:43;56.63;;;26.57;;
5876;SDS011;2964;42.144;24.730;2024-01-15T08:36:10;50.00;;;25.67;;
5876;SDS011;2964;42.144;24.730;2024-01-15T08:38:36;51.93;;;24.07;;
5876;SDS011;2964;42.144;24.730;2024-01-15T08:41:05;47.80;;;22.97;;
5876;SDS011;2964;42.144;24.730;2024-01-15T08:43:33;40.83;;;22.70;;
5876;SDS011;2964;42.144;24.730;2024-01-15T08:46:00;38.07;;;22.07;;
5876;SDS011;2964;42.144;24.730;2024-01-15T08:48:27;49.87;;;24.20;;
5876;SDS011;2964;42.144;24.730;2024-01-15T08:50:53;56.67;;;25.10;;
5876;SDS011;2964;42.144;24.730;2024-01-15T08:53:21;44.80;;;22.27;;
5876;SDS011;2964;42.144;24.730;2024-01-15T08:55:48;39.70;;;22.93;;
5876;SDS011;2964;42.144;24.730;2024-01-15T08:58:16;47.43;;;23.13;;
5876;SDS011;2964;42.144;24.730;2024-01-15T09:00:43;40.20;;;22.37;;
5876;SDS011;2964;42.144;24.730;2024-01-15T09:03:10;37.77;;;23.80;;
5876;SDS011;2964;42.144;24.730;2024-01-15T09:05:37;39.73;;;23.30;;
5876;SDS011;2964;42.144;24.730;2024-01-15T09:08:03;36.50;;;22.30;;
5876;SDS011;2964;42.144;24.730;2024-01-15T09:10:30;47.10;;;23.53;;
5876;SDS011;2964;42.144;24.730;2024-01-15T09:12:57;51.50;;;25.13;;
5876;SDS011;2964;42.144;24.730;2024-01-15T09:15:26;45.80;;;25.70;;
5876;SDS011;2964;42.144;24.730;2024-01-15T09:17:53;40.67;;;24.33;;
5876;SDS011;2964;42.144;24.730;2024-01-15T09:20:22;44.50;;;25.67;;
5876;SDS011;2964;42.144;24.730;2024-01-15T09:22:49;51.20;;;26.60;;
5876;SDS011;2964;42.144;24.730;2024-01-15T09:25:16;60.03;;;28.87;;
5876;SDS011;2964;42.144;24.730;2024-01-15T09:27:43;43.23;;;25.03;;
5876;SDS011;2964;42.144;24.730;2024-01-15T09:30:10;50.03;;;25.83;;
5876;SDS011;2964;42.144;24.730;2024-01-15T09:32:39;44.97;;;25.50;;
5876;SDS011;2964;42.144;24.730;2024-01-15T09:35:06;57.83;;;25.07;;
5876;SDS011;2964;42.144;24.730;2024-01-15T09:37:33;47.03;;;26.03;;
5876;SDS011;2964;42.144;24.730;2024-01-15T09:40:00;48.40;;;26.10;;
5876;SDS011;2964;42.144;24.730;2024-01-15T09:42:28;46.77;;;26.50;;
5876;SDS011;2964;42.144;24.730;2024-01-15T09:44:55;41.60;;;23.73;;
5876;SDS011;2964;42.144;24.730;2024-01-15T09:47:21;44.73;;;25.87;;
5876;SDS011;2964;42.144;24.730;2024-01-15T09:49:51;44.73;;;24.07;;
5876;SDS011;2964;42.144;24.730;2024-01-15T09:52:18;45.83;;;25.50;;
5876;SDS011;2964;42.144;24.730;2024-01-15T09:54:45;44.50;;;25.30;;
5876;SDS011;2964;42.144;24.730;2024-01-15T09:57:12;45.00;;;26.10;;
5876;SDS011;2964;42.144;24.730;2024-01-15T09:59:39;41.07;;;24.80;;
5876;SDS011;2964;42.144;24.730;2024-01-15T10:02:09;53.57;;;27.80;;
5876;SDS011;2964;42.144;24.730;2024-01-15T10:04:42;48.63;;;28.07;;
5876;SDS011;2964;42.144;24.730;2024-01-15T10:07:10;46.03;;;27.70;;
5876;SDS011;2964;42.144;24.730;2024-01-15T10:09:42;45.37;;;26.23;;
5876;SDS011;2964;42.144;24.730;2024-01-15T10:12:09;69.43;;;29.67;;
5876;SDS011;2964;42.144;24.730;2024-01-15T10:14:36;45.73;;;27.03;;
5876;SDS011;2964;42.144;24.730;2024-01-15T10:17:11;43.60;;;26.90;;
5876;SDS011;2964;42.144;24.730;2024-01-15T10:19:38;44.20;;;25.47;;
5876;SDS011;2964;42.144;24.730;2024-01-15T10:22:06;44.43;;;26.47;;
5876;SDS011;2964;42.144;24.730;2024-01-15T10:24:36;46.53;;;27.43;;
5876;SDS011;2964;42.144;24.730;2024-01-15T10:27:07;47.07;;;26.13;;
5876;SDS011;2964;42.144;24.730;2024-01-15T10:29:34;46.57;;;27.87;;
5876;SDS011;2964;42.144;24.730;2024-01-15T10:32:01;49.97;;;26.87;;
5876;SDS011;2964;42.144;24.730;2024-01-15T10:34:30;53.23;;;27.57;;
5876;SDS011;2964;42.144;24.730;2024-01-15T10:36:57;53.43;;;27.73;;
5876;SDS011;2964;42.144;24.730;2024-01-15T10:39:23;54.83;;;27.70;;
5876;SDS011;2964;42.144;24.730;2024-01-15T10:41:52;54.20;;;30.43;;
5876;SDS011;2964;42.144;24.730;2024-01-15T10:44:18;56.17;;;28.57;;
5876;SDS011;2964;42.144;24.730;2024-01-15T10:46:45;48.17;;;27.67;;
5876;SDS011;2964;42.144;24.730;2024-01-15T10:49:13;52.57;;;32.33;;
5876;SDS011;2964;42.144;24.730;2024-01-15T10:51:40;53.70;;;29.90;;
5876;SDS011;2964;42.144;24.730;2024-01-15T10:54:08;60.53;;;31.00;;
5876;SDS011;2964;42.144;24.730;2024-01-15T10:56:37;55.87;;;33.13;;
5876;SDS011;2964;42.144;24.730;2024-01-15T10:59:06;60.13;;;30.67;;
5876;SDS011;2964;42.144;24.730;2024-01-15T11:01:35;52.90;;;30.20;;
5876;SDS011;2964;42.144;24.730;2024-01-15T11:04:03;52.83;;;29.73;;
5876;SDS011;2964;42.144;24.730;2024-01-15T11:06:41;53.33;;;30.70;;
5876;SDS011;2964;42.144;24.730;2024-01-15T11:09:09;52.63;;;30.67;;
5876;SDS011;2964;42.144;24.730;2024-01-15T11:11:39;50.17;;;29.80;;
5876;SDS011;2964;42.144;24.730;2024-01-15T11:14:08;53.07;;;28.77;;
5876;SDS011;2964;42.144;24.730;2024-01-15T11:16:54;49.63;;;26.20;;
5876;SDS011;2964;42.144;24.730;2024-01-15T11:19:22;50.97;;;26.00;;
5876;SDS011;2964;42.144;24.730;2024-01-15T11:21:49;42.07;;;25.83;;
5876;SDS011;2964;42.144;24.730;2024-01-15T11:24:33;38.37;;;24.70;;
5876;SDS011;2964;42.144;24.730;2024-01-15T11:27:03;43.67;;;25.43;;
5876;SDS011;2964;42.144;24.730;2024-01-15T11:29:32;48.20;;;25.90;;
5876;SDS011;2964;42.144;24.730;2024-01-15T11:32:01;41.03;;;24.73;;
5876;SDS011;2964;42.144;24.730;2024-01-15T11:37:26;52.07;;;28.00;;
5876;SDS011;2964;42.144;24.730;2024-01-15T11:39:53;42.53;;;28.07;;
5876;SDS011;2964;42.144;24.730;2024-01-15T11:42:21;45.67;;;26.93;;
5876;SDS011;2964;42.144;24.730;2024-01-15T11:44:50;47.67;;;25.77;;
5876;SDS011;2964;42.144;24.730;2024-01-15T11:47:17;46.90;;;25.63;;
5876;SDS011;2964;42.144;24.730;2024-01-15T11:50:03;39.73;;;23.07;;
5876;SDS011;2964;42.144;24.730;2024-01-15T11:52:34;42.80;;;23.93;;
5876;SDS011;2964;42.144;24.730;2024-01-15T11:55:07;35.60;;;22.13;;
5876;SDS011;2964;42.144;24.730;2024-01-15T11:57:41;38.50;;;23.30;;
5876;SDS011;2964;42.144;24.730;2024-01-15T12:00:12;41.13;;;24.07;;
5876;SDS011;2964;42.144;24.730;2024-01-15T12:02:40;42.30;;;23.43;;
5876;SDS011;2964;42.144;24.730;2024-01-15T12:05:08;41.93;;;23.87;;
5876;SDS011;2964;42.144;24.730;2024-01-15T12:07:35;45.27;;;25.77;;
5876;SDS011;2964;42.144;24.730;2024-01-15T12:10:02;49.00;;;26.30;;
5876;SDS011;2964;42.144;24.730;2024-01-15T12:12:32;45.90;;;25.20;;
5876;SDS011;2964;42.144;24.730;2024-01-15T12:15:04;47.23;;;27.53;;
5876;SDS011;2964;42.144;24.730;2024-01-15T12:17:32;45.07;;;26.57;;
5876;SDS011;2964;42.144;24.730;2024-01-15T12:19:59;50.77;;;28.23;;
5876;SDS011;2964;42.144;24.730;2024-01-15T12:22:26;57.83;;;27.23;;
5876;SDS011;2964;42.144;24.730;2024-01-15T12:24:53;48.97;;;28.03;;
5876;SDS011;2964;42.144;24.730;2024-01-15T12:27:20;55.87;;;30.10;;
5876;SDS011;2964;42.144;24.730;2024-01-15T12:29:48;62.40;;;31.37;;
5876;SDS011;2964;42.144;24.730;2024-01-15T12:32:14;55.93;;;30.13;;
5876;SDS011;2964;42.144;24.730;2024-01-15T12:34:42;59.97;;;31.83;;
5876;SDS011;2964;42.144;24.730;2024-01-15T12:37:09;63.47;;;31.67;;
5876;SDS011;2964;42.144;24.730;2024-01-15T12:39:37;56.40;;;30.40;;
5876;SDS011;2964;42.144;24.730;2024-01-15T12:42:04;57.87;;;31.67;;
5876;SDS011;2964;42.144;24.730;2024-01-15T12:44:31;59.90;;;31.83;;
5876;SDS011;2964;42.144;24.730;2024-01-15T12:46:58;72.60;;;33.53;;
5876;SDS011;2964;42.144;24.730;2024-01-15T12:49:25;57.47;;;32.97;;
5876;SDS011;2964;42.144;24.730;2024-01-15T12:51:54;66.13;;;32.20;;
5876;SDS011;2964;42.144;24.730;2024-01-15T12:54:22;66.27;;;32.30;;
5876;SDS011;2964;42.144;24.730;2024-01-15T12:56:50;63.57;;;34.80;;
5876;SDS011;2964;42.144;24.730;2024-01-15T12:59:16;68.27;;;35.63;;
5876;SDS011;2964;42.144;24.730;2024-01-15T13:01:43;66.27;;;35.93;;
5876;SDS011;2964;42.144;24.730;2024-01-15T13:04:10;69.27;;;37.33;;
5876;SDS011;2964;42.144;24.730;2024-01-15T13:06:37;75.47;;;37.83;;
5876;SDS011;2964;42.144;24.730;2024-01-15T13:09:05;69.57;;;37.70;;
5876;SDS011;2964;42.144;24.730;2024-01-15T13:11:32;68.40;;;37.03;;
5876;SDS011;2964;42.144;24.730;2024-01-15T13:13:59;73.43;;;37.80;;
5876;SDS011;2964;42.144;24.730;2024-01-15T13:16:26;63.70;;;36.50;;
5876;SDS011;2964;42.144;24.730;2024-01-15T13:18:54;63.73;;;36.63;;
5876;SDS011;2964;42.144;24.730;2024-01-15T13:21:21;88.17;;;39.87;;
5876;SDS011;2964;42.144;24.730;2024-01-15T13:23:48;70.10;;;38.57;;
5876;SDS011;2964;42.144;24.730;2024-01-15T13:26:16;70.70;;;38.57;;
5876;SDS011;2964;42.144;24.730;2024-01-15T13:28:44;75.73;;;38.97;;
5876;SDS011;2964;42.144;24.730;2024-01-15T13:31:11;64.83;;;37.17;;
5876;SDS011;2964;42.144;24.730;2024-01-15T13:33:38;70.07;;;36.03;;
5876;SDS011;2964;42.144;24.730;2024-01-15T13:36:05;74.20;;;39.20;;
5876;SDS011;2964;42.144;24.730;2024-01-15T13:38:35;85.50;;;39.57;;
5876;SDS011;2964;42.144;24.730;2024-01-15T13:41:03;65.60;;;39.50;;
5876;SDS011;2964;42.144;24.730;2024-01-15T13:43:32;73.97;;;36.53;;
5876;SDS011;2964;42.144;24.730;2024-01-15T13:45:59;64.40;;;36.73;;
5876;SDS011;2964;42.144;24.730;2024-01-15T13:48:29;68.13;;;36.27;;
5876;SDS011;2964;42.144;24.730;2024-01-15T13:50:56;74.23;;;38.93;;
5876;SDS011;2964;42.144;24.730;2024-01-15T13:53:24;66.53;;;37.43;;
5876;SDS011;2964;42.144;24.730;2024-01-15T13:55:51;64.53;;;35.70;;
5876;SDS011;2964;42.144;24.730;2024-01-15T13:58:17;71.03;;;36.00;;
5876;SDS011;2964;42.144;24.730;2024-01-15T14:00:47;78.37;;;38.57;;
5876;SDS011;2964;42.144;24.730;2024-01-15T14:03:14;74.27;;;36.20;;
5876;SDS011;2964;42.144;24.730;2024-01-15T14:05:41;70.00;;;36.07;;
5876;SDS011;2964;42.144;24.730;2024-01-15T14:08:08;66.23;;;36.00;;
5876;SDS011;2964;42.144;24.730;2024-01-15T14:10:34;67.17;;;35.53;;
5876;SDS011;2964;42.144;24.730;2024-01-15T14:13:01;64.93;;;37.40;;
5876;SDS011;2964;42.144;24.730;2024-01-15T14:15:28;68.67;;;34.70;;
5876;SDS011;2964;42.144;24.730;2024-01-15T14:17:56;67.07;;;35.90;;
5876;SDS011;2964;42.144;24.730;2024-01-15T14:20:24;66.07;;;35.80;;
5876;SDS011;2964;42.144;24.730;2024-01-15T14:22:51;70.50;;;35.10;;
5876;SDS011;2964;42.144;24.730;2024-01-15T14:25:17;64.27;;;35.17;;
5876;SDS011;2964;42.144;24.730;2024-01-15T14:27:44;62.97;;;34.47;;
5876;SDS011;2964;42.144;24.730;2024-01-15T14:30:11;66.77;;;36.17;;
5876;SDS011;2964;42.144;24.730;2024-01-15T14:32:41;67.33;;;33.93;;
5876;SDS011;2964;42.144;24.730;2024-01-15T14:35:09;75.57;;;37.00;;
5876;SDS011;2964;42.144;24.730;2024-01-15T14:37:36;61.77;;;36.73;;